sensor_id;sensor_type;location;lat;lon;timestamp;pressure;altitude;pressure_sealevel;temperature;humidity
52957;BME280;38819;42.692;23.342;2023-04-04T00:00:24;93870.63;;;9.31;84.17
52957;BME280;38819;42.692;23.342;2023-04-04T00:02:49;93872.69;;;9.34;84.63
52957;BME280;38819;42.692;23.342;2023-04-04T00:05:15;93877.09;;;9.21;84.56
52957;BME280;38819;42.692;23.342;2023-04-04T00:07:45;93876.13;;;9.08;85.42
52957;BME280;38819;42.692;23.342;2023-04-04T00:10:11;93879.97;;;9.25;84.41
52957;BME280;38819;42.692;23.342;2023-04-04T00:12:36;93878.06;;;9.34;84.31
52957;BME280;38819;42.692;23.342;2023-04-04T00:15:02;93889.31;;;9.36;84.50
52957;BME280;38819;42.692;23.342;2023-04-04T00:17:28;93893.59;;;9.37;84.03
52957;BME280;38819;42.692;23.342;2023-04-04T00:19:53;93893.13;;;9.44;83.71
52957;BME280;38819;42.692;23.342;2023-04-04T00:22:21;93892.94;;;9.40;83.86
52957;BME280;38819;42.692;23.342;2023-04-04T00:24:46;93900.09;;;9.45;83.96
52957;BME280;38819;42.692;23.342;2023-04-04T00:27:11;93886.16;;;9.43;83.17
52957;BME280;38819;42.692;23.342;2023-04-04T00:29:37;93881.69;;;9.47;83.07
52957;BME280;38819;42.692;23.342;2023-04-04T00:32:03;93881.22;;;9.54;83.33
52957;BME280;38819;42.692;23.342;2023-04-04T00:34:28;93878.50;;;9.54;83.60
52957;BME280;38819;42.692;23.342;2023-04-04T00:36:53;93872.34;;;9.53;84.02
52957;BME280;38819;42.692;23.342;2023-04-04T00:39:19;93872.50;;;9.48;84.36
52957;BME280;38819;42.692;23.342;2023-04-04T00:41:47;93852.84;;;9.30;84.79
52957;BME280;38819;42.692;23.342;2023-04-04T00:44:12;93859.97;;;9.43;84.67
52957;BME280;38819;42.692;23.342;2023-04-04T00:46:38;93853.81;;;9.43;84.92
52957;BME280;38819;42.692;23.342;2023-04-04T00:49:03;93848.88;;;9.45;84.98
52957;BME280;38819;42.692;23.342;2023-04-04T00:51:29;93846.84;;;9.51;84.59
52957;BME280;38819;42.692;23.342;2023-04-04T00:53:54;93842.53;;;9.58;84.30
52957;BME280;38819;42.692;23.342;2023-04-04T00:56:20;93845.22;;;9.67;84.24
52957;BME280;38819;42.692;23.342;2023-04-04T00:58:47;93835.69;;;9.70;84.14
52957;BME280;38819;42.692;23.342;2023-04-04T01:01:12;93839.50;;;9.69;84.08
52957;BME280;38819;42.692;23.342;2023-04-04T01:03:38;93843.63;;;9.75;84.08
52957;BME280;38819;42.692;23.342;2023-04-04T01:06:07;93844.09;;;9.77;83.46
52957;BME280;38819;42.692;23.342;2023-04-04T01:08:35;93854.53;;;9.87;83.27
52957;BME280;38819;42.692;23.342;2023-04-04T01:11:01;93851.69;;;9.83;83.13
52957;BME280;38819;42.692;23.342;2023-04-04T01:13:27;93860.91;;;9.82;83.18
52957;BME280;38819;42.692;23.342;2023-04-04T01:15:53;93854.06;;;9.85;83.41
52957;BME280;38819;42.692;23.342;2023-04-04T01:18:20;93861.97;;;9.90;83.04
52957;BME280;38819;42.692;23.342;2023-04-04T01:20:56;93853.09;;;9.90;82.65
52957;BME280;38819;42.692;23.342;2023-04-04T01:23:31;93863.41;;;9.96;82.78
52957;BME280;38819;42.692;23.342;2023-04-04T01:26:01;93868.94;;;10.00;82.60
52957;BME280;38819;42.692;23.342;2023-04-04T01:28:27;93864.19;;;10.06;82.43
52957;BME280;38819;42.692;23.342;2023-04-04T01:30:52;93865.41;;;10.08;81.95
52957;BME280;38819;42.692;23.342;2023-04-04T01:33:24;93864.16;;;10.14;82.06
52957;BME280;38819;42.692;23.342;2023-04-04T01:35:59;93870.19;;;10.11;82.07
52957;BME280;38819;42.692;23.342;2023-04-04T01:38:29;93866.53;;;10.16;82.10
52957;BME280;38819;42.692;23.342;2023-04-04T01:41:04;93856.97;;;10.18;82.43
52957;BME280;38819;42.692;23.342;2023-04-04T01:43:30;93855.41;;;10.17;82.60
52957;BME280;38819;42.692;23.342;2023-04-04T01:45:58;93858.88;;;10.18;82.64
52957;BME280;38819;42.692;23.342;2023-04-04T01:48:23;93854.75;;;10.20;82.32
52957;BME280;38819;42.692;23.342;2023-04-04T01:50:49;93845.59;;;10.13;82.57
52957;BME280;38819;42.692;23.342;2023-04-04T01:53:15;93844.94;;;10.16;82.67
52957;BME280;38819;42.692;23.342;2023-04-04T01:55:40;93841.81;;;9.96;83.29
52957;BME280;38819;42.692;23.342;2023-04-04T01:58:06;93824.75;;;9.75;84.20
52957;BME280;38819;42.692;23.342;2023-04-04T02:00:32;93821.91;;;9.71;84.83
52957;BME280;38819;42.692;23.342;2023-04-04T02:02:57;93816.81;;;9.70;84.33
52957;BME280;38819;42.692;23.342;2023-04-04T02:05:24;93819.69;;;9.64;83.41
52957;BME280;38819;42.692;23.342;2023-04-04T02:07:50;93826.69;;;9.66;83.63
52957;BME280;38819;42.692;23.342;2023-04-04T02:10:16;93827.16;;;9.68;83.58
52957;BME280;38819;42.692;23.342;2023-04-04T02:12:41;93827.28;;;9.71;83.29
52957;BME280;38819;42.692;23.342;2023-04-04T02:15:07;93829.31;;;9.83;82.86
52957;BME280;38819;42.692;23.342;2023-04-04T02:17:33;93824.72;;;9.83;82.65
52957;BME280;38819;42.692;23.342;2023-04-04T02:19:59;93821.84;;;9.89;82.02
52957;BME280;38819;42.692;23.342;2023-04-04T02:22:25;93815.81;;;9.92;81.14
52957;BME280;38819;42.692;23.342;2023-04-04T02:24:51;93827.56;;;9.96;81.51
52957;BME280;38819;42.692;23.342;2023-04-04T02:27:18;93817.88;;;9.95;81.03
52957;BME280;38819;42.692;23.342;2023-04-04T02:29:43;93821.19;;;9.92;80.74
52957;BME280;38819;42.692;23.342;2023-04-04T02:32:09;93810.13;;;9.85;80.61
52957;BME280;38819;42.692;23.342;2023-04-04T02:34:34;93817.91;;;9.86;80.62
52957;BME280;38819;42.692;23.342;2023-04-04T02:37:00;93809.16;;;9.89;80.58
52957;BME280;38819;42.692;23.342;2023-04-04T02:39:26;93808.84;;;9.82;80.25
52957;BME280;38819;42.692;23.342;2023-04-04T02:41:52;93823.16;;;9.82;79.81
52957;BME280;38819;42.692;23.342;2023-04-04T02:44:17;93817.75;;;9.82;79.88
52957;BME280;38819;42.692;23.342;2023-04-04T02:46:43;93817.25;;;9.80;79.45
52957;BME280;38819;42.692;23.342;2023-04-04T02:49:08;93821.22;;;9.83;79.93
52957;BME280;38819;42.692;23.342;2023-04-04T02:51:33;93829.63;;;9.90;79.97
52957;BME280;38819;42.692;23.342;2023-04-04T02:53:59;93830.75;;;9.89;79.65
52957;BME280;38819;42.692;23.342;2023-04-04T02:56:25;93823.13;;;9.91;79.63
52957;BME280;38819;42.692;23.342;2023-04-04T02:58:50;93824.72;;;9.92;79.48
52957;BME280;38819;42.692;23.342;2023-04-04T03:01:16;93823.59;;;9.93;79.78
52957;BME280;38819;42.692;23.342;2023-04-04T03:03:42;93817.09;;;9.94;79.93
52957;BME280;38819;42.692;23.342;2023-04-04T03:06:07;93819.63;;;9.91;80.15
52957;BME280;38819;42.692;23.342;2023-04-04T03:08:32;93818.19;;;9.93;80.63
52957;BME280;38819;42.692;23.342;2023-04-04T03:10:59;93821.53;;;9.99;80.31
52957;BME280;38819;42.692;23.342;2023-04-04T03:13:25;93822.63;;;9.98;80.63
52957;BME280;38819;42.692;23.342;2023-04-04T03:15:57;93824.22;;;9.99;80.69
52957;BME280;38819;42.692;23.342;2023-04-04T03:18:24;93821.53;;;9.99;80.87
52957;BME280;38819;42.692;23.342;2023-04-04T03:20:49;93832.13;;;10.04;80.72
52957;BME280;38819;42.692;23.342;2023-04-04T03:23:15;93835.44;;;10.10;80.67
52957;BME280;38819;42.692;23.342;2023-04-04T03:25:40;93836.84;;;10.16;80.67
52957;BME280;38819;42.692;23.342;2023-04-04T03:28:08;93835.25;;;10.15;80.63
52957;BME280;38819;42.692;23.342;2023-04-04T03:30:34;93824.63;;;10.10;80.80
52957;BME280;38819;42.692;23.342;2023-04-04T03:33:03;93837.97;;;10.06;80.97
52957;BME280;38819;42.692;23.342;2023-04-04T03:35:32;93834.34;;;10.02;81.36
52957;BME280;38819;42.692;23.342;2023-04-04T03:38:00;93837.56;;;9.87;82.59
52957;BME280;38819;42.692;23.342;2023-04-04T03:40:26;93826.94;;;9.81;83.02
52957;BME280;38819;42.692;23.342;2023-04-04T03:42:51;93830.44;;;9.82;83.22
52957;BME280;38819;42.692;23.342;2023-04-04T03:45:17;93839.00;;;9.84;83.24
52957;BME280;38819;42.692;23.342;2023-04-04T03:47:43;93839.13;;;9.96;82.92
52957;BME280;38819;42.692;23.342;2023-04-04T03:50:09;93828.47;;;10.00;82.97
52957;BME280;38819;42.692;23.342;2023-04-04T03:52:37;93833.22;;;10.03;83.10
52957;BME280;38819;42.692;23.342;2023-04-04T03:55:06;93837.97;;;10.06;82.81
52957;BME280;38819;42.692;23.342;2023-04-04T03:57:32;93833.38;;;10.07;82.86
52957;BME280;38819;42.692;23.342;2023-04-04T03:59:58;93840.50;;;10.11;82.49
52957;BME280;38819;42.692;23.342;2023-04-04T04:02:23;93835.16;;;10.02;83.03
52957;BME280;38819;42.692;23.342;2023-04-04T04:04:49;93841.97;;;10.00;83.34
52957;BME280;38819;42.692;23.342;2023-04-04T04:07:14;93833.22;;;10.03;83.17
52957;BME280;38819;42.692;23.342;2023-04-04T04:09:40;93831.34;;;9.95;83.49
52957;BME280;38819;42.692;23.342;2023-04-04T04:12:06;93831.97;;;10.00;83.28
52957;BME280;38819;42.692;23.342;2023-04-04T04:14:31;93830.81;;;10.10;82.70
52957;BME280;38819;42.692;23.342;2023-04-04T04:16:56;93833.50;;;10.10;82.38
52957;BME280;38819;42.692;23.342;2023-04-04T04:19:22;93828.28;;;10.05;82.40
52957;BME280;38819;42.692;23.342;2023-04-04T04:21:47;93821.91;;;10.18;82.41
52957;BME280;38819;42.692;23.342;2023-04-04T04:24:13;93833.00;;;10.17;82.60
52957;BME280;38819;42.692;23.342;2023-04-04T04:26:38;93834.47;;;10.14;82.65
52957;BME280;38819;42.692;23.342;2023-04-04T04:29:05;93835.25;;;10.15;82.95
52957;BME280;38819;42.692;23.342;2023-04-04T04:31:31;93838.78;;;10.07;82.99
52957;BME280;38819;42.692;23.342;2023-04-04T04:33:57;93852.22;;;10.15;82.98
52957;BME280;38819;42.692;23.342;2023-04-04T04:36:22;93857.16;;;10.13;83.09
52957;BME280;38819;42.692;23.342;2023-04-04T04:38:47;93859.72;;;10.10;83.36
52957;BME280;38819;42.692;23.342;2023-04-04T04:41:13;93864.28;;;10.18;83.12
52957;BME280;38819;42.692;23.342;2023-04-04T04:43:38;93856.06;;;10.14;82.61
52957;BME280;38819;42.692;23.342;2023-04-04T04:46:05;93862.69;;;10.26;82.15
52957;BME280;38819;42.692;23.342;2023-04-04T04:48:32;93868.38;;;10.33;81.91
52957;BME280;38819;42.692;23.342;2023-04-04T04:50:58;93865.69;;;10.33;81.68
52957;BME280;38819;42.692;23.342;2023-04-04T04:53:23;93872.03;;;10.28;81.84
52957;BME280;38819;42.692;23.342;2023-04-04T04:55:49;93873.63;;;10.29;81.54
52957;BME280;38819;42.692;23.342;2023-04-04T04:58:16;93883.44;;;10.34;81.27
52957;BME280;38819;42.692;23.342;2023-04-04T05:00:45;93885.38;;;10.33;81.04
52957;BME280;38819;42.692;23.342;2023-04-04T05:03:11;93884.25;;;10.34;80.55
52957;BME280;38819;42.692;23.342;2023-04-04T05:05:36;93891.91;;;10.32;80.21
52957;BME280;38819;42.692;23.342;2023-04-04T05:08:03;93890.28;;;10.31;79.52
52957;BME280;38819;42.692;23.342;2023-04-04T05:10:29;93896.63;;;10.35;79.29
52957;BME280;38819;42.692;23.342;2023-04-04T05:12:55;93898.84;;;10.33;79.26
52957;BME280;38819;42.692;23.342;2023-04-04T05:15:20;93895.84;;;10.35;79.24
52957;BME280;38819;42.692;23.342;2023-04-04T05:17:46;93901.38;;;10.38;79.18
52957;BME280;38819;42.692;23.342;2023-04-04T05:20:12;93907.72;;;10.43;78.70
52957;BME280;38819;42.692;23.342;2023-04-04T05:22:44;93915.66;;;10.48;78.29
52957;BME280;38819;42.692;23.342;2023-04-04T05:25:12;93905.16;;;10.46;78.24
52957;BME280;38819;42.692;23.342;2023-04-04T05:27:38;93909.44;;;10.47;78.46
52957;BME280;38819;42.692;23.342;2023-04-04T05:30:04;93909.94;;;10.49;78.55
52957;BME280;38819;42.692;23.342;2023-04-04T05:32:30;93913.41;;;10.50;78.13
52957;BME280;38819;42.692;23.342;2023-04-04T05:34:55;93908.94;;;10.54;78.18
52957;BME280;38819;42.692;23.342;2023-04-04T05:37:21;93915.16;;;10.54;78.57
52957;BME280;38819;42.692;23.342;2023-04-04T05:39:46;93911.03;;;10.48;77.79
52957;BME280;38819;42.692;23.342;2023-04-04T05:42:13;93920.69;;;10.58;77.79
52957;BME280;38819;42.692;23.342;2023-04-04T05:44:38;93928.28;;;10.65;77.99
52957;BME280;38819;42.692;23.342;2023-04-04T05:47:03;93918.41;;;10.69;78.46
52957;BME280;38819;42.692;23.342;2023-04-04T05:49:29;93921.75;;;10.66;77.80
52957;BME280;38819;42.692;23.342;2023-04-04T05:51:54;93921.78;;;10.57;78.49
52957;BME280;38819;42.692;23.342;2023-04-04T05:54:21;93924.06;;;10.46;78.17
52957;BME280;38819;42.692;23.342;2023-04-04T05:56:46;93925.13;;;10.54;78.42
52957;BME280;38819;42.692;23.342;2023-04-04T05:59:12;93920.69;;;10.58;78.49
52957;BME280;38819;42.692;23.342;2023-04-04T06:01:37;93928.47;;;10.60;77.48
52957;BME280;38819;42.692;23.342;2023-04-04T06:04:04;93927.22;;;10.48;78.49
52957;BME280;38819;42.692;23.342;2023-04-04T06:06:31;93924.66;;;10.52;78.47
52957;BME280;38819;42.692;23.342;2023-04-04T06:08:56;93936.41;;;10.56;78.10
52957;BME280;38819;42.692;23.342;2023-04-04T06:11:22;93934.38;;;10.53;77.83
52957;BME280;38819;42.692;23.342;2023-04-04T06:13:48;93935.16;;;10.53;77.94
52957;BME280;38819;42.692;23.342;2023-04-04T06:16:13;93927.06;;;10.53;77.75
52957;BME280;38819;42.692;23.342;2023-04-04T06:18:38;93928.00;;;10.57;78.07
52957;BME280;38819;42.692;23.342;2023-04-04T06:21:04;93939.72;;;10.62;78.11
52957;BME280;38819;42.692;23.342;2023-04-04T06:23:30;93938.56;;;10.71;78.65
52957;BME280;38819;42.692;23.342;2023-04-04T06:25:55;93938.56;;;10.71;78.28
52957;BME280;38819;42.692;23.342;2023-04-04T06:28:21;93939.75;;;10.53;79.42
52957;BME280;38819;42.692;23.342;2023-04-04T06:30:46;93948.31;;;10.55;79.83
52957;BME280;38819;42.692;23.342;2023-04-04T06:33:12;93954.19;;;10.57;80.56
52957;BME280;38819;42.692;23.342;2023-04-04T06:35:37;93975.22;;;10.43;81.26
52957;BME280;38819;42.692;23.342;2023-04-04T06:38:03;93961.41;;;10.00;76.81
52957;BME280;38819;42.692;23.342;2023-04-04T06:40:29;93987.44;;;9.70;73.82
52957;BME280;38819;42.692;23.342;2023-04-04T06:42:55;93986.47;;;9.31;74.38
52957;BME280;38819;42.692;23.342;2023-04-04T06:45:23;93989.47;;;9.30;73.05
52957;BME280;38819;42.692;23.342;2023-04-04T06:47:49;93989.22;;;8.91;73.64
52957;BME280;38819;42.692;23.342;2023-04-04T06:50:16;94008.38;;;8.89;72.10
52957;BME280;38819;42.692;23.342;2023-04-04T06:52:41;93995.97;;;8.80;72.25
52957;BME280;38819;42.692;23.342;2023-04-04T06:55:08;94017.63;;;8.66;70.91
52957;BME280;38819;42.692;23.342;2023-04-04T06:57:33;94018.66;;;8.33;70.73
52957;BME280;38819;42.692;23.342;2023-04-04T06:59:59;94021.00;;;8.26;71.32
52957;BME280;38819;42.692;23.342;2023-04-04T07:02:25;94023.88;;;8.07;71.03
52957;BME280;38819;42.692;23.342;2023-04-04T07:04:50;94034.53;;;8.12;71.08
52957;BME280;38819;42.692;23.342;2023-04-04T07:07:16;94054.06;;;8.04;70.75
52957;BME280;38819;42.692;23.342;2023-04-04T07:09:41;94049.72;;;7.94;71.36
52957;BME280;38819;42.692;23.342;2023-04-04T07:12:07;94055.09;;;7.94;70.98
52957;BME280;38819;42.692;23.342;2023-04-04T07:14:33;94066.16;;;7.93;71.26
52957;BME280;38819;42.692;23.342;2023-04-04T07:16:58;94066.75;;;7.90;70.14
52957;BME280;38819;42.692;23.342;2023-04-04T07:19:23;94085.75;;;7.93;68.38
52957;BME280;38819;42.692;23.342;2023-04-04T07:21:53;94097.16;;;7.76;67.72
52957;BME280;38819;42.692;23.342;2023-04-04T07:24:18;94088.81;;;7.64;69.03
52957;BME280;38819;42.692;23.342;2023-04-04T07:26:44;94095.47;;;7.67;68.32
52957;BME280;38819;42.692;23.342;2023-04-04T07:29:09;94100.19;;;7.47;68.45
52957;BME280;38819;42.692;23.342;2023-04-04T07:31:35;94114.03;;;7.40;67.70
52957;BME280;38819;42.692;23.342;2023-04-04T07:34:01;94108.56;;;7.46;68.68
52957;BME280;38819;42.692;23.342;2023-04-04T07:36:28;94120.38;;;7.31;68.55
52957;BME280;38819;42.692;23.342;2023-04-04T07:38:54;94120.09;;;7.18;69.25
52957;BME280;38819;42.692;23.342;2023-04-04T07:41:20;94127.03;;;7.33;68.35
52957;BME280;38819;42.692;23.342;2023-04-04T07:43:47;94119.22;;;7.37;67.75
52957;BME280;38819;42.692;23.342;2023-04-04T07:46:12;94127.16;;;7.42;67.79
52957;BME280;38819;42.692;23.342;2023-04-04T07:48:38;94131.22;;;7.53;67.81
52957;BME280;38819;42.692;23.342;2023-04-04T07:51:04;94136.41;;;7.64;66.61
52957;BME280;38819;42.692;23.342;2023-04-04T07:53:29;94134.63;;;7.59;66.14
52957;BME280;38819;42.692;23.342;2023-04-04T07:55:55;94152.81;;;7.62;66.08
52957;BME280;38819;42.692;23.342;2023-04-04T07:58:20;94122.56;;;7.42;65.58
52957;BME280;38819;42.692;23.342;2023-04-04T08:00:46;94149.94;;;7.31;65.78
52957;BME280;38819;42.692;23.342;2023-04-04T08:03:12;94146.56;;;7.25;66.63
52957;BME280;38819;42.692;23.342;2023-04-04T08:05:38;94152.28;;;7.04;66.93
52957;BME280;38819;42.692;23.342;2023-04-04T08:08:03;94161.75;;;7.16;66.37
52957;BME280;38819;42.692;23.342;2023-04-04T08:10:29;94171.63;;;7.20;66.17
52957;BME280;38819;42.692;23.342;2023-04-04T08:12:54;94156.00;;;7.22;66.41
52957;BME280;38819;42.692;23.342;2023-04-04T08:15:20;94172.50;;;7.30;65.38
52957;BME280;38819;42.692;23.342;2023-04-04T08:17:45;94166.25;;;7.20;65.65
52957;BME280;38819;42.692;23.342;2023-04-04T08:20:11;94158.19;;;7.20;66.15
52957;BME280;38819;42.692;23.342;2023-04-04T08:22:38;94182.16;;;7.31;65.29
52957;BME280;38819;42.692;23.342;2023-04-04T08:25:04;94190.41;;;7.34;65.33
52957;BME280;38819;42.692;23.342;2023-04-04T08:27:30;94177.19;;;7.24;64.96
52957;BME280;38819;42.692;23.342;2023-04-04T08:29:55;94180.56;;;7.16;64.90
52957;BME280;38819;42.692;23.342;2023-04-04T08:32:21;94192.22;;;7.25;64.48
52957;BME280;38819;42.692;23.342;2023-04-04T08:34:47;94193.19;;;7.15;64.13
52957;BME280;38819;42.692;23.342;2023-04-04T08:37:12;94189.97;;;7.13;64.35
52957;BME280;38819;42.692;23.342;2023-04-04T08:39:38;94193.13;;;7.01;64.42
52957;BME280;38819;42.692;23.342;2023-04-04T08:42:05;94195.81;;;7.01;64.21
52957;BME280;38819;42.692;23.342;2023-04-04T08:44:32;94189.72;;;6.82;64.46
52957;BME280;38819;42.692;23.342;2023-04-04T08:47:02;94200.66;;;6.85;64.37
52957;BME280;38819;42.692;23.342;2023-04-04T08:49:31;94195.84;;;6.68;64.80
52957;BME280;38819;42.692;23.342;2023-04-04T08:51:58;94206.00;;;6.72;64.81
52957;BME280;38819;42.692;23.342;2023-04-04T08:54:27;94217.69;;;6.62;64.81
52957;BME280;38819;42.692;23.342;2023-04-04T08:56:54;94220.00;;;6.68;65.32
52957;BME280;38819;42.692;23.342;2023-04-04T08:59:20;94211.38;;;6.72;64.68
52957;BME280;38819;42.692;23.342;2023-04-04T09:01:46;94226.72;;;6.66;64.74
52957;BME280;38819;42.692;23.342;2023-04-04T09:04:11;94225.53;;;6.58;65.16
52957;BME280;38819;42.692;23.342;2023-04-04T09:06:37;94229.28;;;6.57;65.17
52957;BME280;38819;42.692;23.342;2023-04-04T09:09:03;94222.53;;;6.41;65.88
52957;BME280;38819;42.692;23.342;2023-04-04T09:11:32;94243.25;;;6.54;65.36
52957;BME280;38819;42.692;23.342;2023-04-04T09:14:01;94242.47;;;6.35;64.77
52957;BME280;38819;42.692;23.342;2023-04-04T09:16:29;94234.28;;;6.45;64.96
52957;BME280;38819;42.692;23.342;2023-04-04T09:18:55;94253.84;;;6.45;65.22
52957;BME280;38819;42.692;23.342;2023-04-04T09:21:20;94248.28;;;6.42;65.69
52957;BME280;38819;42.692;23.342;2023-04-04T09:23:46;94239.13;;;6.43;65.76
52957;BME280;38819;42.692;23.342;2023-04-04T09:26:11;94237.56;;;6.42;67.12
52957;BME280;38819;42.692;23.342;2023-04-04T09:28:37;94240.22;;;6.42;66.33
52957;BME280;38819;42.692;23.342;2023-04-04T09:31:06;94242.69;;;6.57;66.81
52957;BME280;38819;42.692;23.342;2023-04-04T09:33:33;94249.66;;;6.58;65.22
52957;BME280;38819;42.692;23.342;2023-04-04T09:38:28;94266.69;;;6.48;65.64
52957;BME280;38819;42.692;23.342;2023-04-04T09:40:55;94250.38;;;6.45;65.37
52957;BME280;38819;42.692;23.342;2023-04-04T09:43:22;94238.56;;;6.46;65.63
52957;BME280;38819;42.692;23.342;2023-04-04T09:45:48;94250.16;;;6.41;65.62
52957;BME280;38819;42.692;23.342;2023-04-04T09:48:30;94253.09;;;6.40;65.92
52957;BME280;38819;42.692;23.342;2023-04-04T09:50:57;94266.16;;;6.27;65.07
52957;BME280;38819;42.692;23.342;2023-04-04T09:53:23;94250.22;;;6.36;65.79
52957;BME280;38819;42.692;23.342;2023-04-04T09:55:50;94257.97;;;6.38;65.84
52957;BME280;38819;42.692;23.342;2023-04-04T09:58:19;94248.50;;;6.45;64.77
52957;BME280;38819;42.692;23.342;2023-04-04T10:00:48;94254.16;;;6.44;65.13
52957;BME280;38819;42.692;23.342;2023-04-04T10:03:14;94275.09;;;6.42;66.04
52957;BME280;38819;42.692;23.342;2023-04-04T10:05:40;94252.53;;;6.43;65.74
52957;BME280;38819;42.692;23.342;2023-04-04T10:08:16;94263.44;;;6.52;64.33
52957;BME280;38819;42.692;23.342;2023-04-04T10:10:58;94263.19;;;6.48;64.53
52957;BME280;38819;42.692;23.342;2023-04-04T10:13:24;94272.00;;;6.54;64.00
52957;BME280;38819;42.692;23.342;2023-04-04T10:15:54;94279.53;;;6.52;64.23
52957;BME280;38819;42.692;23.342;2023-04-04T10:18:28;94275.25;;;6.32;64.82
52957;BME280;38819;42.692;23.342;2023-04-04T10:20:55;94277.03;;;6.36;65.16
52957;BME280;38819;42.692;23.342;2023-04-04T10:23:22;94283.44;;;6.40;65.04
52957;BME280;38819;42.692;23.342;2023-04-04T10:25:49;94277.22;;;6.45;65.36
52957;BME280;38819;42.692;23.342;2023-04-04T10:28:16;94292.50;;;6.63;64.50
52957;BME280;38819;42.692;23.342;2023-04-04T10:30:48;94285.97;;;6.70;63.91
52957;BME280;38819;42.692;23.342;2023-04-04T10:33:21;94282.84;;;6.62;64.47
52957;BME280;38819;42.692;23.342;2023-04-04T10:35:53;94287.94;;;6.64;64.73
52957;BME280;38819;42.692;23.342;2023-04-04T10:38:25;94293.44;;;6.73;64.26
52957;BME280;38819;42.692;23.342;2023-04-04T10:40:54;94293.50;;;6.67;64.11
52957;BME280;38819;42.692;23.342;2023-04-04T10:43:24;94302.63;;;6.66;64.04
52957;BME280;38819;42.692;23.342;2023-04-04T10:45:50;94303.00;;;6.60;64.04
52957;BME280;38819;42.692;23.342;2023-04-04T10:48:17;94305.66;;;6.65;63.99
52957;BME280;38819;42.692;23.342;2023-04-04T10:50:43;94307.44;;;6.70;64.21
52957;BME280;38819;42.692;23.342;2023-04-04T10:53:09;94305.78;;;6.74;64.55
52957;BME280;38819;42.692;23.342;2023-04-04T10:55:34;94305.91;;;6.82;64.41
52957;BME280;38819;42.692;23.342;2023-04-04T10:58:01;94319.13;;;6.79;64.19
52957;BME280;38819;42.692;23.342;2023-04-04T11:00:27;94320.06;;;6.69;64.23
52957;BME280;38819;42.692;23.342;2023-04-04T11:02:57;94329.03;;;6.59;64.46
52957;BME280;38819;42.692;23.342;2023-04-04T11:08:27;94313.22;;;6.58;65.47
52957;BME280;38819;42.692;23.342;2023-04-04T11:10:54;94320.06;;;6.69;65.14
52957;BME280;38819;42.692;23.342;2023-04-04T11:13:30;94335.38;;;6.68;64.11
52957;BME280;38819;42.692;23.342;2023-04-04T11:16:06;94326.94;;;6.56;64.66
52957;BME280;38819;42.692;23.342;2023-04-04T11:21:05;94338.19;;;6.77;64.18
52957;BME280;38819;42.692;23.342;2023-04-04T11:29:04;94337.00;;;6.45;65.12
52957;BME280;38819;42.692;23.342;2023-04-04T11:31:42;94344.41;;;6.54;65.27
52957;BME280;38819;42.692;23.342;2023-04-04T11:34:13;94342.03;;;6.52;65.64
52957;BME280;38819;42.692;23.342;2023-04-04T11:39:28;94341.81;;;6.48;65.88
52957;BME280;38819;42.692;23.342;2023-04-04T11:42:10;94357.16;;;6.43;66.40
52957;BME280;38819;42.692;23.342;2023-04-04T11:47:24;94341.31;;;6.22;65.20
52957;BME280;38819;42.692;23.342;2023-04-04T11:49:49;94339.59;;;6.32;65.51
52957;BME280;38819;42.692;23.342;2023-04-04T11:52:16;94354.19;;;6.44;64.99
52957;BME280;38819;42.692;23.342;2023-04-04T11:54:44;94346.94;;;6.45;64.90
52957;BME280;38819;42.692;23.342;2023-04-04T11:57:11;94352.75;;;6.52;64.87
52957;BME280;38819;42.692;23.342;2023-04-04T11:59:47;94363.19;;;6.54;64.35
52957;BME280;38819;42.692;23.342;2023-04-04T12:02:15;94347.81;;;6.40;64.81
52957;BME280;38819;42.692;23.342;2023-04-04T12:04:41;94360.00;;;6.52;63.87
52957;BME280;38819;42.692;23.342;2023-04-04T12:07:10;94363.31;;;6.43;64.80
52957;BME280;38819;42.692;23.342;2023-04-04T12:09:39;94348.25;;;6.47;64.36
52957;BME280;38819;42.692;23.342;2023-04-04T12:12:07;94360.28;;;6.50;62.86
52957;BME280;38819;42.692;23.342;2023-04-04T12:14:32;94353.59;;;6.47;63.03
52957;BME280;38819;42.692;23.342;2023-04-04T12:16:58;94352.13;;;6.36;63.65
52957;BME280;38819;42.692;23.342;2023-04-04T12:19:26;94349.00;;;6.29;63.08
52957;BME280;38819;42.692;23.342;2023-04-04T12:21:52;94375.19;;;6.13;63.53
52957;BME280;38819;42.692;23.342;2023-04-04T12:24:19;94369.13;;;6.02;63.95
52957;BME280;38819;42.692;23.342;2023-04-04T12:26:46;94359.97;;;6.08;64.39
52957;BME280;38819;42.692;23.342;2023-04-04T12:29:14;94363.16;;;6.10;64.63
52957;BME280;38819;42.692;23.342;2023-04-04T12:31:41;94356.66;;;6.17;64.33
52957;BME280;38819;42.692;23.342;2023-04-04T12:34:16;94361.81;;;6.08;65.15
52957;BME280;38819;42.692;23.342;2023-04-04T12:36:42;94353.63;;;5.99;65.55
52957;BME280;38819;42.692;23.342;2023-04-04T12:39:08;94362.81;;;5.88;65.75
52957;BME280;38819;42.692;23.342;2023-04-04T12:42:07;94369.31;;;6.11;65.77
52957;BME280;38819;42.692;23.342;2023-04-04T12:44:38;94358.97;;;5.99;64.83
52957;BME280;38819;42.692;23.342;2023-04-04T12:47:08;94368.91;;;5.99;65.83
52957;BME280;38819;42.692;23.342;2023-04-04T12:49:45;94366.69;;;6.06;66.43
52957;BME280;38819;42.692;23.342;2023-04-04T12:52:16;94374.09;;;6.14;65.53
52957;BME280;38819;42.692;23.342;2023-04-04T12:54:42;94376.84;;;6.09;65.57
52957;BME280;38819;42.692;23.342;2023-04-04T12:57:09;94383.88;;;6.05;65.11
52957;BME280;38819;42.692;23.342;2023-04-04T12:59:36;94378.50;;;6.05;65.27
52957;BME280;38819;42.692;23.342;2023-04-04T13:02:07;94380.03;;;6.11;65.02
52957;BME280;38819;42.692;23.342;2023-04-04T13:04:34;94371.25;;;6.05;64.16
52957;BME280;38819;42.692;23.342;2023-04-04T13:07:00;94383.31;;;6.03;64.39
52957;BME280;38819;42.692;23.342;2023-04-04T13:09:27;94377.22;;;5.97;64.98
52957;BME280;38819;42.692;23.342;2023-04-04T13:12:03;94400.56;;;5.97;65.11
52957;BME280;38819;42.692;23.342;2023-04-04T13:14:55;94396.69;;;6.08;64.62